Time;durP1;ratioP1;P1;durP2;ratioP2;P2;SDS_P1;SDS_P2;PMS_P1;PMS_P2;Temp;Humidity;BMP_temperature;BMP_pressure;BME280_temperature;BME280_humidity;BME280_pressure;Samples;Min_cycle;Max_cycle;Signal;HPM_P1;HPM_P2
2023/05/22 00:02:08;;;;;;;1.90;1.80;;;17.20;99.90;;;;;;5034124;28;20294;-65
2023/05/22 00:04:34;;;;;;;2.35;2.25;;;17.10;99.90;;;;;;5035347;28;20734;-64
2023/05/22 00:07:02;;;;;;;2.20;2.10;;;17.10;99.90;;;;;;5034296;28;20212;-65
2023/05/22 00:09:29;;;;;;;2.30;2.20;;;17.10;99.90;;;;;;5033272;28;20753;-65
2023/05/22 00:11:57;;;;;;;2.20;2.10;;;17.10;99.90;;;;;;5034134;28;20598;-63
2023/05/22 00:14:24;;;;;;;2.30;2.20;;;17.10;99.90;;;;;;5033603;28;20287;-63
2023/05/22 00:16:52;;;;;;;2.30;2.20;;;17.00;99.90;;;;;;5044750;28;20206;-65
2023/05/22 00:19:21;;;;;;;2.10;2.00;;;16.90;99.90;;;;;;5053038;28;20393;-65
2023/05/22 00:21:50;;;;;;;2.10;2.00;;;16.90;99.90;;;;;;5053429;28;20258;-64
2023/05/22 00:24:17;;;;;;;2.15;2.05;;;16.90;99.90;;;;;;5053431;28;20269;-65
2023/05/22 00:26:43;;;;;;;2.10;2.00;;;16.90;99.90;;;;;;5053270;28;20647;-64
2023/05/22 00:29:11;;;;;;;1.90;1.80;;;17.00;99.90;;;;;;5053049;28;20224;-65
2023/05/22 00:31:38;;;;;;;2.10;1.90;;;16.90;99.90;;;;;;5052939;28;20234;-63
2023/05/22 00:34:05;;;;;;;2.20;2.03;;;17.00;99.90;;;;;;5053074;28;20540;-65
2023/05/22 00:36:32;;;;;;;2.13;2.03;;;17.10;99.90;;;;;;5053226;28;20208;-64
2023/05/22 00:38:59;;;;;;;3.05;2.10;;;17.00;99.90;;;;;;5053117;28;20234;-62
2023/05/22 00:41:25;;;;;;;2.03;1.92;;;16.90;99.90;;;;;;5052505;28;20224;-65
2023/05/22 00:43:52;;;;;;;2.10;2.00;;;16.80;99.90;;;;;;5052632;28;20208;-63
2023/05/22 00:46:21;;;;;;;2.00;1.90;;;16.80;99.90;;;;;;5052652;28;20631;-64
2023/05/22 00:48:48;;;;;;;2.25;2.15;;;16.70;99.90;;;;;;5053412;28;20270;-64
2023/05/22 00:51:15;;;;;;;2.20;2.10;;;16.70;99.90;;;;;;5053143;28;20286;-64
2023/05/22 00:53:43;;;;;;;2.25;2.15;;;16.80;99.90;;;;;;5052937;28;20270;-64
2023/05/22 00:56:11;;;;;;;2.30;2.20;;;16.60;99.90;;;;;;5052676;28;20211;-63
2023/05/22 00:58:38;;;;;;;2.30;2.20;;;16.60;99.90;;;;;;5053016;28;20238;-63
2023/05/22 01:01:06;;;;;;;2.10;2.00;;;16.60;99.90;;;;;;5051888;28;20200;-65
2023/05/22 01:03:34;;;;;;;2.10;2.00;;;16.60;99.90;;;;;;5052496;28;20212;-65
2023/05/22 01:06:01;;;;;;;2.13;2.00;;;16.70;99.90;;;;;;5052409;28;20204;-65
2023/05/22 01:08:28;;;;;;;2.00;1.90;;;16.70;99.90;;;;;;5052277;28;20921;-65
2023/05/22 01:11:02;;;;;;;1.98;1.88;;;16.70;99.90;;;;;;5051844;28;20322;-64
2023/05/22 01:13:34;;;;;;;2.08;1.98;;;16.60;99.90;;;;;;5052448;28;20261;-64
2023/05/22 01:16:08;;;;;;;2.20;2.10;;;16.50;99.90;;;;;;5052125;28;20294;-64
2023/05/22 01:18:43;;;;;;;2.35;2.25;;;16.50;99.90;;;;;;5052414;28;20227;-64
2023/05/22 01:21:17;;;;;;;2.20;2.10;;;16.40;99.90;;;;;;5052085;28;20219;-65
2023/05/22 01:24:19;;;;;;;2.20;2.10;;;16.50;99.90;;;;;;5051896;28;20675;-63
2023/05/22 01:27:24;;;;;;;2.22;2.13;;;16.40;99.90;;;;;;5047072;28;20215;-63
2023/05/22 01:30:08;;;;;;;2.10;2.00;;;16.30;99.90;;;;;;5049210;28;20207;-63
2023/05/22 01:32:37;;;;;;;2.50;2.40;;;16.30;99.90;;;;;;5051967;28;20211;-62
2023/05/22 01:35:10;;;;;;;2.00;1.90;;;16.30;99.90;;;;;;5052636;28;20208;-65
2023/05/22 01:37:38;;;;;;;2.22;2.13;;;16.30;99.90;;;;;;5051999;28;20278;-65
2023/05/22 01:40:06;;;;;;;2.10;2.00;;;16.40;99.90;;;;;;5051689;28;20210;-64
2023/05/22 01:42:34;;;;;;;2.03;1.93;;;16.40;99.90;;;;;;5051545;28;20207;-65
2023/05/22 01:45:01;;;;;;;2.05;1.95;;;16.30;99.90;;;;;;5051534;28;20647;-64
2023/05/22 01:47:28;;;;;;;2.00;1.90;;;16.30;99.90;;;;;;5054544;28;20231;-65
2023/05/22 01:49:56;;;;;;;2.10;2.00;;;16.40;99.90;;;;;;5055663;28;20662;-64
2023/05/22 01:52:30;;;;;;;2.10;2.00;;;16.40;99.90;;;;;;5047549;28;20564;-64
2023/05/22 01:55:03;;;;;;;1.90;1.80;;;16.40;99.90;;;;;;5051917;28;20203;-64
2023/05/22 01:57:35;;;;;;;1.90;1.80;;;16.40;99.90;;;;;;5051194;28;20230;-64
2023/05/22 02:00:08;;;;;;;1.77;1.70;;;16.40;99.90;;;;;;5050986;28;20639;-63
2023/05/22 02:02:37;;;;;;;1.95;1.85;;;16.40;99.90;;;;;;5051706;28;20210;-63
2023/05/22 02:05:09;;;;;;;1.85;1.77;;;16.50;99.90;;;;;;5051754;28;20199;-64
2023/05/22 02:07:38;;;;;;;2.00;1.90;;;16.40;99.90;;;;;;5051459;28;20498;-63
2023/05/22 02:10:07;;;;;;;1.80;1.70;;;16.40;99.90;;;;;;5050352;28;20210;-63
2023/05/22 02:12:34;;;;;;;2.00;1.90;;;16.40;99.90;;;;;;5051499;28;20230;-63
2023/05/22 02:15:02;;;;;;;2.00;1.90;;;16.40;99.90;;;;;;5051191;28;20693;-63
2023/05/22 02:17:29;;;;;;;1.90;1.80;;;16.50;99.90;;;;;;5051273;28;20223;-63
2023/05/22 02:19:55;;;;;;;2.03;1.90;;;16.50;99.90;;;;;;5050417;28;20219;-63
2023/05/22 02:22:24;;;;;;;2.00;1.90;;;16.40;99.90;;;;;;5050872;28;20521;-64
2023/05/22 02:24:50;;;;;;;1.90;1.80;;;16.40;99.90;;;;;;5051536;28;20212;-64
2023/05/22 02:27:17;;;;;;;1.90;1.80;;;16.40;99.90;;;;;;5051524;28;20200;-65
2023/05/22 02:29:44;;;;;;;1.90;1.80;;;16.40;99.90;;;;;;5050768;28;20208;-64
2023/05/22 02:32:11;;;;;;;2.10;2.00;;;16.30;99.90;;;;;;5050956;28;20224;-65
2023/05/22 02:34:38;;;;;;;2.40;2.20;;;16.20;99.90;;;;;;5051005;28;20204;-65
2023/05/22 02:37:05;;;;;;;2.17;2.08;;;16.20;99.90;;;;;;5050947;28;20232;-65
2023/05/22 02:39:33;;;;;;;2.13;2.03;;;16.20;99.90;;;;;;5050747;28;20204;-63
2023/05/22 02:42:00;;;;;;;1.92;1.83;;;16.10;99.90;;;;;;5051032;28;20211;-64
2023/05/22 02:44:27;;;;;;;1.90;1.80;;;16.00;99.90;;;;;;5051358;28;20219;-64
2023/05/22 02:46:53;;;;;;;2.10;1.90;;;15.90;99.90;;;;;;5050845;28;20211;-64
2023/05/22 02:49:20;;;;;;;2.20;2.10;;;15.90;99.90;;;;;;5050099;28;20242;-64
2023/05/22 02:51:47;;;;;;;2.08;1.98;;;15.80;99.90;;;;;;5050636;28;20230;-64
2023/05/22 02:54:15;;;;;;;2.10;2.00;;;15.90;99.90;;;;;;5050958;28;20527;-65
2023/05/22 02:56:43;;;;;;;2.10;2.00;;;15.80;99.90;;;;;;5050698;28;20310;-65
2023/05/22 02:59:10;;;;;;;2.00;1.90;;;15.80;99.90;;;;;;5049670;28;20702;-63
2023/05/22 03:01:38;;;;;;;1.77;1.70;;;15.80;99.90;;;;;;5050301;28;20208;-63
2023/05/22 03:04:05;;;;;;;2.03;1.92;;;15.80;99.90;;;;;;5051073;28;20242;-64
2023/05/22 03:06:33;;;;;;;2.00;1.90;;;15.70;99.90;;;;;;5050687;28;20265;-63
2023/05/22 03:09:02;;;;;;;1.83;1.73;;;15.70;99.90;;;;;;5050145;28;20238;-63
2023/05/22 03:11:29;;;;;;;2.00;1.90;;;15.70;99.90;;;;;;5050470;28;20303;-63
2023/05/22 03:13:57;;;;;;;2.10;2.00;;;15.70;99.90;;;;;;5050681;28;20215;-63
2023/05/22 03:16:24;;;;;;;2.00;1.90;;;15.70;99.90;;;;;;5050755;28;20210;-63
2023/05/22 03:18:53;;;;;;;2.20;2.10;;;15.60;99.90;;;;;;5050588;28;20232;-64
2023/05/22 03:21:19;;;;;;;2.10;2.00;;;15.60;99.90;;;;;;5052235;28;20208;-63
2023/05/22 03:23:48;;;;;;;2.10;2.00;;;15.60;99.90;;;;;;5054797;28;20204;-63
2023/05/22 03:26:14;;;;;;;2.30;2.20;;;15.50;99.90;;;;;;5054144;28;20239;-63
2023/05/22 03:28:41;;;;;;;2.10;2.00;;;15.40;99.90;;;;;;5054466;28;20223;-63
2023/05/22 03:31:09;;;;;;;2.05;1.95;;;15.30;99.90;;;;;;5054051;28;20281;-64
2023/05/22 03:33:36;;;;;;;2.00;1.90;;;15.30;99.90;;;;;;5054094;28;20220;-63
2023/05/22 03:36:03;;;;;;;2.10;2.00;;;15.40;99.90;;;;;;5054434;28;20560;-63
2023/05/22 03:38:30;;;;;;;2.25;2.15;;;15.40;99.90;;;;;;5054090;28;20232;-64
2023/05/22 03:40:57;;;;;;;2.10;2.00;;;15.40;99.90;;;;;;5054135;28;20250;-63
2023/05/22 03:43:24;;;;;;;2.07;1.97;;;15.40;99.90;;;;;;5056665;28;20571;-63
2023/05/22 03:45:51;;;;;;;2.05;1.95;;;15.40;99.90;;;;;;5063649;28;20216;-63
2023/05/22 03:48:21;;;;;;;2.07;1.97;;;15.40;99.90;;;;;;5054191;28;20740;-63
2023/05/22 03:50:47;;;;;;;2.10;2.00;;;15.40;99.90;;;;;;5053212;28;20203;-64
2023/05/22 03:53:14;;;;;;;2.00;1.90;;;15.40;99.90;;;;;;5053363;28;20227;-64
2023/05/22 03:55:41;;;;;;;2.15;2.05;;;15.40;99.90;;;;;;5053578;28;20769;-64
2023/05/22 03:58:08;;;;;;;2.00;1.90;;;15.40;99.90;;;;;;5053809;28;20249;-64
2023/05/22 04:00:36;;;;;;;2.08;1.98;;;15.50;99.90;;;;;;5053638;28;20220;-64
2023/05/22 04:03:03;;;;;;;1.95;1.85;;;15.50;99.90;;;;;;5053310;28;20615;-63
2023/05/22 04:05:32;;;;;;;2.20;2.10;;;15.60;99.90;;;;;;5052734;28;20215;-65
2023/05/22 04:07:58;;;;;;;2.30;2.10;;;15.60;99.90;;;;;;5052551;28;20220;-64
2023/05/22 04:10:25;;;;;;;2.03;1.92;;;15.60;99.90;;;;;;5051776;28;20212;-64
2023/05/22 04:12:52;;;;;;;2.20;2.10;;;15.70;99.90;;;;;;5038654;28;20225;-63
2023/05/22 04:15:20;;;;;;;1.98;1.88;;;15.70;99.90;;;;;;5032935;28;20215;-63
2023/05/22 04:17:48;;;;;;;2.10;2.00;;;15.70;99.90;;;;;;5032876;28;20590;-63
2023/05/22 04:20:15;;;;;;;2.00;1.90;;;15.80;99.90;;;;;;5032178;28;20212;-64
2023/05/22 04:22:44;;;;;;;1.90;1.80;;;15.70;99.90;;;;;;5032055;28;20204;-63
2023/05/22 04:25:11;;;;;;;2.00;1.90;;;15.80;99.90;;;;;;5032777;28;20215;-65
2023/05/22 04:27:38;;;;;;;1.90;1.80;;;15.80;99.90;;;;;;5032822;28;20229;-65
2023/05/22 04:30:07;;;;;;;1.98;1.88;;;15.80;99.90;;;;;;5031782;28;20214;-64
2023/05/22 04:32:35;;;;;;;1.73;1.73;;;15.80;99.90;;;;;;5048305;28;20613;-64
2023/05/22 04:35:02;;;;;;;1.92;1.83;;;15.80;99.90;;;;;;5051905;28;20207;-64
2023/05/22 04:37:30;;;;;;;2.08;1.98;;;15.90;99.90;;;;;;5052538;28;20224;-63
2023/05/22 04:40:01;;;;;;;2.25;2.00;;;15.90;99.90;;;;;;5051589;28;20207;-65
2023/05/22 04:42:29;;;;;;;1.98;1.88;;;15.90;99.90;;;;;;5054977;28;20191;-65
2023/05/22 04:44:57;;;;;;;2.20;2.10;;;15.90;99.90;;;;;;5054576;28;20749;-65
2023/05/22 04:47:24;;;;;;;2.05;1.95;;;15.90;99.90;;;;;;5015190;28;1106421;-63
2023/05/22 04:49:51;;;;;;;2.10;2.00;;;16.00;99.90;;;;;;5053817;28;20208;-63
2023/05/22 04:52:18;;;;;;;1.90;1.80;;;16.00;99.90;;;;;;5053935;28;20709;-63
2023/05/22 04:54:45;;;;;;;1.90;1.80;;;16.00;99.90;;;;;;5053253;28;20203;-66
2023/05/22 04:57:14;;;;;;;2.20;2.10;;;16.00;99.90;;;;;;5052991;28;20204;-65
2023/05/22 04:59:40;;;;;;;1.83;1.73;;;16.10;99.90;;;;;;5051312;28;20757;-64
2023/05/22 05:02:07;;;;;;;2.00;1.90;;;16.10;99.90;;;;;;5051223;28;20211;-64
2023/05/22 05:04:34;;;;;;;1.70;1.70;;;16.10;99.90;;;;;;5052523;28;20579;-65
2023/05/22 05:07:02;;;;;;;2.00;1.90;;;16.10;99.90;;;;;;5052287;28;20231;-62
2023/05/22 05:09:29;;;;;;;1.60;1.60;;;16.10;99.90;;;;;;5051162;28;20224;-64
2023/05/22 05:11:56;;;;;;;2.45;2.30;;;16.30;99.90;;;;;;5052222;28;20212;-62
2023/05/22 05:14:25;;;;;;;2.00;1.90;;;16.20;99.90;;;;;;5053269;28;20227;-63
2023/05/22 05:16:53;;;;;;;2.08;1.98;;;16.10;99.90;;;;;;5056084;28;20745;-64
2023/05/22 05:19:20;;;;;;;2.15;2.05;;;16.10;99.90;;;;;;5056405;28;20234;-63
2023/05/22 05:21:48;;;;;;;2.08;1.95;;;16.20;99.90;;;;;;5053534;28;20207;-64
2023/05/22 05:24:16;;;;;;;1.90;1.80;;;16.30;99.90;;;;;;5053590;28;20641;-62
2023/05/22 05:26:43;;;;;;;1.90;1.80;;;16.40;99.90;;;;;;5054599;28;20686;-68
2023/05/22 05:29:09;;;;;;;2.00;1.90;;;16.60;99.90;;;;;;5069344;28;20259;-64
2023/05/22 05:31:37;;;;;;;2.05;1.95;;;16.80;99.90;;;;;;5067045;28;20263;-63
2023/05/22 05:34:04;;;;;;;1.98;1.88;;;17.00;99.90;;;;;;5066966;28;20219;-65
2023/05/22 05:36:31;;;;;;;2.22;2.13;;;17.10;99.90;;;;;;5064328;28;20216;-63
2023/05/22 05:38:58;;;;;;;1.98;1.88;;;17.30;99.90;;;;;;5056960;28;20643;-63
2023/05/22 05:41:26;;;;;;;2.17;2.08;;;17.50;99.90;;;;;;5050882;28;20208;-64
2023/05/22 05:43:56;;;;;;;2.13;2.03;;;17.60;99.90;;;;;;5050868;28;20650;-64
2023/05/22 05:46:23;;;;;;;1.95;1.85;;;17.80;99.90;;;;;;5052673;28;20204;-64
2023/05/22 05:48:52;;;;;;;2.00;1.90;;;18.00;99.90;;;;;;5057403;28;20220;-64
2023/05/22 05:51:19;;;;;;;2.00;1.90;;;18.20;99.90;;;;;;5050914;28;20210;-64
2023/05/22 05:53:46;;;;;;;2.33;2.22;;;18.40;99.90;;;;;;5051378;28;20227;-64
2023/05/22 05:56:13;;;;;;;2.00;1.90;;;18.50;99.90;;;;;;5050798;28;20303;-64
2023/05/22 05:58:40;;;;;;;1.90;1.80;;;18.70;99.90;;;;;;5050249;28;20320;-64
2023/05/22 06:01:07;;;;;;;1.90;1.80;;;18.80;99.90;;;;;;5050707;28;20204;-64
2023/05/22 06:03:34;;;;;;;1.90;1.80;;;18.90;99.90;;;;;;5052032;28;20310;-64
2023/05/22 06:06:03;;;;;;;1.75;1.70;;;19.00;99.90;;;;;;5052143;28;20208;-65
2023/05/22 06:08:31;;;;;;;2.00;1.90;;;18.90;99.90;;;;;;5051507;28;20320;-65
2023/05/22 06:10:58;;;;;;;2.00;1.90;;;18.70;99.90;;;;;;5050754;28;20675;-65
2023/05/22 06:13:24;;;;;;;2.13;2.03;;;18.60;99.90;;;;;;5051314;28;20725;-65
2023/05/22 06:15:51;;;;;;;1.70;1.70;;;18.60;99.90;;;;;;5051932;28;20294;-64
2023/05/22 06:18:18;;;;;;;2.00;1.90;;;18.60;99.90;;;;;;5051736;28;20308;-64
2023/05/22 06:20:45;;;;;;;2.10;2.00;;;18.60;99.90;;;;;;5050592;28;20207;-65
2023/05/22 06:23:13;;;;;;;1.80;1.70;;;18.70;99.90;;;;;;5051173;28;20208;-65
2023/05/22 06:25:40;;;;;;;1.90;1.80;;;18.80;99.90;;;;;;5051516;28;20204;-65
2023/05/22 06:28:07;;;;;;;2.00;1.90;;;18.80;99.90;;;;;;5051523;28;20228;-65
2023/05/22 06:30:34;;;;;;;1.90;1.80;;;18.90;99.90;;;;;;5050526;28;20302;-65
2023/05/22 06:33:00;;;;;;;1.90;1.80;;;19.00;99.90;;;;;;5050893;28;20266;-65
2023/05/22 06:35:27;;;;;;;1.77;1.67;;;19.00;99.90;;;;;;5051389;28;20671;-64
2023/05/22 06:37:54;;;;;;;1.90;1.80;;;19.10;99.90;;;;;;5051087;28;20220;-65
2023/05/22 06:40:22;;;;;;;1.92;1.83;;;19.20;99.90;;;;;;5050651;28;20266;-65
2023/05/22 06:42:49;;;;;;;2.08;1.98;;;19.20;99.90;;;;;;5051541;28;20200;-64
2023/05/22 06:45:18;;;;;;;2.65;2.28;;;19.20;99.90;;;;;;5051505;28;20233;-65
2023/05/22 06:47:45;;;;;;;1.90;1.80;;;19.30;99.90;;;;;;5051151;28;20270;-64
2023/05/22 06:50:12;;;;;;;1.95;1.85;;;19.30;99.90;;;;;;5050350;28;20207;-64
2023/05/22 06:52:39;;;;;;;2.03;1.92;;;19.40;99.90;;;;;;5050811;28;20291;-63
2023/05/22 06:55:06;;;;;;;2.20;2.10;;;19.50;99.90;;;;;;5050835;28;20211;-64
2023/05/22 06:57:35;;;;;;;2.00;1.90;;;19.50;99.90;;;;;;5050974;28;20224;-64
2023/05/22 07:00:03;;;;;;;2.10;2.00;;;19.60;99.90;;;;;;5050452;28;20254;-64
2023/05/22 07:02:30;;;;;;;2.28;2.17;;;19.80;99.90;;;;;;5050638;28;20687;-64
2023/05/22 07:04:56;;;;;;;2.00;1.90;;;20.00;99.90;;;;;;5051315;28;20233;-63
2023/05/22 07:07:23;;;;;;;2.20;2.10;;;20.30;99.90;;;;;;5051143;28;20212;-64
2023/05/22 07:09:50;;;;;;;2.55;2.35;;;20.50;99.90;;;;;;5051140;28;20206;-64
2023/05/22 07:12:17;;;;;;;2.35;2.15;;;20.50;99.90;;;;;;5050890;28;20207;-64
2023/05/22 07:14:45;;;;;;;2.40;2.20;;;20.60;99.90;;;;;;5050655;28;20282;-65
2023/05/22 07:17:12;;;;;;;2.10;2.00;;;20.70;99.90;;;;;;5050380;28;20212;-66
2023/05/22 07:19:39;;;;;;;2.20;2.10;;;20.80;99.90;;;;;;5050043;28;20828;-63
2023/05/22 07:22:05;;;;;;;2.10;2.00;;;21.10;99.90;;;;;;5050898;28;20215;-63
2023/05/22 07:24:32;;;;;;;1.77;1.67;;;21.20;99.90;;;;;;5050617;28;20742;-65
2023/05/22 07:27:00;;;;;;;1.90;1.80;;;21.40;99.90;;;;;;5050419;28;20295;-64
2023/05/22 07:29:26;;;;;;;1.90;1.80;;;21.40;99.90;;;;;;5049886;28;20220;-65
2023/05/22 07:31:54;;;;;;;1.80;1.70;;;21.50;99.90;;;;;;5050259;28;20700;-66
2023/05/22 07:34:22;;;;;;;1.75;1.65;;;21.40;99.90;;;;;;5050675;28;20501;-65
2023/05/22 07:36:49;;;;;;;2.20;2.10;;;21.40;99.90;;;;;;5050522;28;20211;-65
2023/05/22 07:39:16;;;;;;;2.00;1.90;;;21.50;99.90;;;;;;5049867;28;20579;-64
2023/05/22 07:41:49;;;;;;;1.98;1.88;;;21.90;99.90;;;;;;5051217;28;20212;-65
2023/05/22 07:44:15;;;;;;;1.95;1.85;;;22.30;99.90;;;;;;5050601;28;20180;-65
2023/05/22 07:46:43;;;;;;;2.00;1.90;;;22.40;99.90;;;;;;5050116;28;20222;-65
2023/05/22 07:49:11;;;;;;;2.20;2.10;;;22.40;99.90;;;;;;5049667;28;20699;-65
2023/05/22 07:51:39;;;;;;;2.28;2.03;;;22.50;99.90;;;;;;5057972;28;20239;-65
2023/05/22 07:54:06;;;;;;;2.00;1.90;;;22.50;99.90;;;;;;5052311;28;20224;-65
2023/05/22 07:56:36;;;;;;;1.80;1.70;;;22.70;99.90;;;;;;5050604;28;20280;-65
2023/05/22 07:59:03;;;;;;;2.10;2.00;;;22.90;99.90;;;;;;5049854;28;20792;-65
2023/05/22 08:01:30;;;;;;;2.10;2.00;;;23.10;99.90;;;;;;5049666;28;20675;-64
2023/05/22 08:03:56;;;;;;;1.98;1.88;;;23.30;99.90;;;;;;5049932;28;20287;-65
2023/05/22 08:06:25;;;;;;;2.00;1.90;;;23.30;99.90;;;;;;5050707;28;20207;-65
2023/05/22 08:08:52;;;;;;;2.35;2.15;;;23.20;99.90;;;;;;5053973;28;20273;-64
2023/05/22 08:11:20;;;;;;;2.10;2.00;;;23.40;99.90;;;;;;5053325;28;20234;-65
2023/05/22 08:13:46;;;;;;;2.00;1.90;;;23.30;99.90;;;;;;5054082;28;20227;-65
2023/05/22 08:16:13;;;;;;;1.80;1.70;;;23.20;99.90;;;;;;5053734;28;20207;-65
2023/05/22 08:18:40;;;;;;;2.17;2.08;;;23.10;99.90;;;;;;5054573;28;20224;-65
2023/05/22 08:21:07;;;;;;;1.95;1.85;;;22.90;99.90;;;;;;5052782;28;20801;-65
2023/05/22 08:23:35;;;;;;;1.90;1.80;;;22.80;99.90;;;;;;5053619;28;20226;-65
2023/05/22 08:26:02;;;;;;;2.00;1.90;;;22.80;99.90;;;;;;5053537;28;20239;-65
2023/05/22 08:28:29;;;;;;;1.90;1.80;;;22.80;99.90;;;;;;5052942;28;20224;-65
2023/05/22 08:30:56;;;;;;;2.05;1.90;;;22.80;99.90;;;;;;5052874;28;20230;-65
2023/05/22 08:33:23;;;;;;;1.83;1.73;;;22.80;99.90;;;;;;5053423;28;20210;-64
2023/05/22 08:35:49;;;;;;;1.90;1.80;;;22.80;99.90;;;;;;5053162;28;20277;-65
2023/05/22 08:38:16;;;;;;;2.00;1.90;;;22.80;99.90;;;;;;5053446;28;20220;-66
2023/05/22 08:40:48;;;;;;;1.90;1.80;;;22.90;99.90;;;;;;5052947;28;20208;-65
2023/05/22 08:43:15;;;;;;;1.60;1.60;;;23.00;99.90;;;;;;5053193;28;20189;-65
2023/05/22 08:45:43;;;;;;;2.05;1.95;;;23.00;99.90;;;;;;5053358;28;20621;-65
2023/05/22 08:48:13;;;;;;;1.88;1.77;;;22.90;99.90;;;;;;5053402;28;20228;-65
2023/05/22 08:50:42;;;;;;;1.83;1.77;;;22.90;99.90;;;;;;5052534;28;20208;-65
2023/05/22 08:53:13;;;;;;;1.77;1.70;;;22.90;99.90;;;;;;5053204;28;20204;-65
2023/05/22 08:55:40;;;;;;;1.70;1.63;;;22.90;99.90;;;;;;5052782;28;20210;-64
2023/05/22 08:58:10;;;;;;;1.80;1.70;;;22.90;99.90;;;;;;5053057;28;20220;-64
2023/05/22 09:00:37;;;;;;;2.50;1.85;;;23.10;99.90;;;;;;5052452;28;20200;-65
2023/05/22 09:03:08;;;;;;;1.85;1.75;;;23.20;99.90;;;;;;5052970;28;20574;-65
2023/05/22 09:05:35;;;;;;;1.50;1.50;;;23.10;99.90;;;;;;5052612;28;20231;-65
2023/05/22 09:08:03;;;;;;;1.80;1.70;;;23.20;99.90;;;;;;5052536;28;20220;-65
2023/05/22 09:10:30;;;;;;;1.95;1.85;;;23.20;99.90;;;;;;5052213;28;20208;-65
2023/05/22 09:13:02;;;;;;;1.60;1.50;;;23.20;99.90;;;;;;5052871;28;20210;-64
2023/05/22 09:15:31;;;;;;;1.65;1.65;;;23.30;99.90;;;;;;5052550;28;20629;-65
2023/05/22 09:17:58;;;;;;;1.85;1.75;;;23.40;99.90;;;;;;5051587;28;20228;-65
2023/05/22 09:20:25;;;;;;;1.80;1.70;;;23.70;99.90;;;;;;5051676;28;20650;-65
2023/05/22 09:22:52;;;;;;;1.83;1.75;;;23.90;99.90;;;;;;5052609;28;20579;-64
2023/05/22 09:25:20;;;;;;;1.95;1.85;;;24.20;99.90;;;;;;5052587;28;20590;-65
2023/05/22 09:27:47;;;;;;;2.47;2.00;;;24.20;99.90;;;;;;5052158;28;20721;-64
2023/05/22 09:30:17;;;;;;;1.60;1.60;;;24.20;99.90;;;;;;5051953;28;20211;-64
2023/05/22 09:32:46;;;;;;;1.90;1.80;;;24.20;99.90;;;;;;5053166;28;20212;-65
2023/05/22 09:35:14;;;;;;;1.40;1.40;;;24.20;99.90;;;;;;5052318;28;20235;-66
2023/05/22 09:37:41;;;;;;;1.63;1.63;;;24.60;99.90;;;;;;5052303;28;20224;-65
2023/05/22 09:40:10;;;;;;;1.80;1.70;;;24.90;99.90;;;;;;5051697;28;20243;-66
2023/05/22 09:42:37;;;;;;;1.95;1.85;;;25.10;99.90;;;;;;5052100;28;20204;-65
2023/05/22 09:45:05;;;;;;;1.90;1.80;;;25.20;99.90;;;;;;5052081;28;20662;-66
2023/05/22 09:47:32;;;;;;;1.75;1.65;;;25.20;99.90;;;;;;5051517;28;20232;-66
2023/05/22 09:50:05;;;;;;;1.60;1.60;;;25.30;99.90;;;;;;5051362;28;20265;-66
2023/05/22 09:52:34;;;;;;;1.88;1.77;;;25.50;99.90;;;;;;5052300;28;20234;-65
2023/05/22 09:55:03;;;;;;;1.83;1.73;;;25.60;99.90;;;;;;5051906;28;20742;-66
2023/05/22 09:57:33;;;;;;;1.90;1.80;;;25.70;99.90;;;;;;5052583;28;20274;-65
2023/05/22 10:00:08;;;;;;;1.50;1.50;;;25.70;99.90;;;;;;5051397;28;20288;-67
2023/05/22 10:02:36;;;;;;;1.75;1.67;;;25.80;99.90;;;;;;5051975;28;20194;-65
2023/05/22 10:05:07;;;;;;;1.70;1.70;;;25.90;99.90;;;;;;5051501;28;20683;-65
2023/05/22 10:07:36;;;;;;;2.00;1.90;;;26.00;99.90;;;;;;5052054;28;20224;-65
2023/05/22 10:10:07;;;;;;;2.00;1.90;;;26.00;99.90;;;;;;5051283;28;20216;-65
2023/05/22 10:12:40;;;;;;;1.90;1.80;;;25.80;99.90;;;;;;5051761;28;20189;-65
2023/05/22 10:15:09;;;;;;;2.08;1.98;;;25.80;99.90;;;;;;5051440;28;20228;-66
2023/05/22 10:17:37;;;;;;;1.73;1.63;;;25.90;99.90;;;;;;5051749;28;20231;-65
2023/05/22 10:20:08;;;;;;;2.10;2.00;;;26.00;99.90;;;;;;5050731;28;20588;-65
2023/05/22 10:22:36;;;;;;;2.00;1.90;;;26.10;99.90;;;;;;5051767;28;20251;-66
2023/05/22 10:25:03;;;;;;;2.00;1.90;;;26.20;99.90;;;;;;5051947;28;20208;-65
2023/05/22 10:27:30;;;;;;;1.98;1.85;;;26.30;99.90;;;;;;5051728;28;20510;-66
2023/05/22 10:30:05;;;;;;;1.90;1.80;;;26.40;99.90;;;;;;5050360;28;20210;-65
2023/05/22 10:32:41;;;;;;;1.90;1.80;;;26.50;99.90;;;;;;5051119;28;20214;-66
2023/05/22 10:35:18;;;;;;;2.00;1.90;;;26.70;99.90;;;;;;5051367;28;20211;-66
2023/05/22 10:37:50;;;;;;;1.90;1.80;;;26.70;99.90;;;;;;5050964;28;20230;-66
2023/05/22 10:40:27;;;;;;;2.00;1.90;;;26.70;99.90;;;;;;5050762;28;20262;-65
2023/05/22 10:42:57;;;;;;;1.90;1.80;;;26.70;99.90;;;;;;5051324;28;20596;-66
2023/05/22 10:45:27;;;;;;;2.28;2.17;;;26.80;99.90;;;;;;5054530;28;20204;-66
2023/05/22 10:48:05;;;;;;;2.17;2.08;;;26.90;99.90;;;;;;5053209;28;20261;-65
2023/05/22 10:50:34;;;;;;;1.88;1.77;;;26.90;99.90;;;;;;5052125;28;20222;-65
2023/05/22 10:53:22;;;;;;;1.85;1.77;;;27.00;99.90;;;;;;5052503;28;20210;-67
2023/05/22 10:55:49;;;;;;;2.00;1.90;;;27.20;99.90;;;;;;5052918;28;20286;-65
2023/05/22 10:58:16;;;;;;;2.00;1.90;;;27.30;99.90;;;;;;5053454;28;20268;-65
2023/05/22 11:00:43;;;;;;;1.90;1.80;;;27.20;99.90;;;;;;5052934;28;20674;-66
2023/05/22 11:03:10;;;;;;;2.13;2.00;;;27.20;99.90;;;;;;5053962;28;20208;-65
2023/05/22 11:05:39;;;;;;;1.63;1.63;;;27.30;99.90;;;;;;5053376;28;20204;-65
2023/05/22 11:08:25;;;;;;;1.90;1.80;;;27.30;99.90;;;;;;5053923;28;20224;-67
2023/05/22 11:10:52;;;;;;;2.08;1.98;;;27.40;99.90;;;;;;5039978;28;20207;-65
2023/05/22 11:13:19;;;;;;;1.85;1.75;;;27.40;99.90;;;;;;5053187;28;20626;-65
2023/05/22 11:15:46;;;;;;;1.67;1.67;;;27.50;99.90;;;;;;5054570;28;20224;-65
2023/05/22 11:18:14;;;;;;;2.30;2.10;;;27.50;99.90;;;;;;5053232;28;20573;-66
2023/05/22 11:20:43;;;;;;;1.80;1.70;;;27.40;99.90;;;;;;5051398;28;20265;-65
2023/05/22 11:23:11;;;;;;;1.90;1.80;;;27.50;99.90;;;;;;5051542;28;20207;-66
2023/05/22 11:25:40;;;;;;;1.70;1.60;;;27.40;99.90;;;;;;5051696;28;20211;-66
2023/05/22 11:28:09;;;;;;;2.00;1.90;;;27.60;99.90;;;;;;5051034;28;20227;-67
2023/05/22 11:30:36;;;;;;;1.90;1.80;;;27.60;99.90;;;;;;5050137;28;20220;-65
2023/05/22 11:33:04;;;;;;;1.80;1.70;;;27.60;99.90;;;;;;5050544;28;20204;-65
2023/05/22 11:35:31;;;;;;;1.80;1.70;;;27.80;99.90;;;;;;5050379;28;20228;-64
2023/05/22 11:38:03;;;;;;;1.88;1.77;;;27.90;99.90;;;;;;5042788;28;20306;-64
2023/05/22 11:40:31;;;;;;;1.85;1.75;;;28.00;99.90;;;;;;5022051;28;20509;-65
2023/05/22 11:42:58;;;;;;;1.90;1.80;;;27.90;99.90;;;;;;5033244;28;20204;-66
2023/05/22 11:45:25;;;;;;;2.13;2.03;;;27.60;99.90;;;;;;5033889;28;20711;-67
2023/05/22 11:47:52;;;;;;;1.98;1.88;;;27.70;99.90;;;;;;5033887;28;20243;-66
2023/05/22 11:50:19;;;;;;;1.80;1.70;;;27.50;99.90;;;;;;5033662;28;20299;-66
2023/05/22 11:52:46;;;;;;;2.40;2.20;;;27.60;99.90;;;;;;5034900;28;20254;-65
2023/05/22 11:55:14;;;;;;;1.85;1.75;;;27.80;99.90;;;;;;5038740;28;20282;-66
2023/05/22 11:57:42;;;;;;;1.92;1.83;;;27.80;99.90;;;;;;5034880;28;20224;-65
2023/05/22 12:00:10;;;;;;;2.13;2.03;;;27.70;99.90;;;;;;5034039;28;20230;-65
2023/05/22 12:02:37;;;;;;;2.28;2.08;;;27.60;99.90;;;;;;5034395;28;20288;-63
2023/05/22 12:05:05;;;;;;;1.60;1.60;;;27.60;99.90;;;;;;5033962;28;20211;-63
2023/05/22 12:07:32;;;;;;;1.95;1.85;;;27.70;99.90;;;;;;5034255;28;20339;-63
2023/05/22 12:09:59;;;;;;;1.90;1.80;;;28.00;99.90;;;;;;5033279;28;20215;-64
2023/05/22 12:12:28;;;;;;;1.65;1.60;;;28.20;99.90;;;;;;5034014;28;20667;-65
2023/05/22 12:14:54;;;;;;;1.90;1.80;;;28.40;99.90;;;;;;5033677;28;20224;-62
2023/05/22 12:17:22;;;;;;;1.50;1.50;;;28.40;99.90;;;;;;5035002;28;20668;-64
2023/05/22 12:19:49;;;;;;;1.83;1.73;;;28.50;99.90;;;;;;5033653;28;20650;-64
2023/05/22 12:22:16;;;;;;;2.25;1.60;;;28.50;99.90;;;;;;5034469;28;20208;-64
2023/05/22 12:24:45;;;;;;;1.80;1.70;;;28.70;99.90;;;;;;5033828;28;20308;-63
2023/05/22 12:27:13;;;;;;;2.10;2.00;;;28.90;99.90;;;;;;5033876;28;20215;-64
2023/05/22 12:29:42;;;;;;;1.80;1.70;;;28.80;99.90;;;;;;5029971;28;20219;-64
2023/05/22 12:32:10;;;;;;;1.70;1.70;;;28.50;99.90;;;;;;5031288;28;20243;-64
2023/05/22 12:34:43;;;;;;;1.75;1.65;;;28.50;99.90;;;;;;5031445;28;20204;-63
2023/05/22 12:37:18;;;;;;;1.83;1.60;;;28.50;99.90;;;;;;5031574;28;20559;-64
2023/05/22 12:39:53;;;;;;;1.80;1.60;;;28.20;99.90;;;;;;5030854;28;20724;-64
2023/05/22 12:42:20;;;;;;;1.65;1.63;;;28.30;99.90;;;;;;5031616;28;20192;-60
2023/05/22 12:44:50;;;;;;;1.58;1.52;;;28.30;99.90;;;;;;5030803;28;20215;-60
2023/05/22 12:47:17;;;;;;;1.70;1.60;;;28.40;99.90;;;;;;5031063;28;20932;-59
2023/05/22 12:49:44;;;;;;;3.78;1.98;;;28.50;99.90;;;;;;5030334;28;20610;-58
2023/05/22 12:52:11;;;;;;;2.03;1.60;;;28.70;99.90;;;;;;5031350;28;20211;-61
2023/05/22 12:54:38;;;;;;;1.60;1.50;;;28.80;99.90;;;;;;5031213;28;20303;-61